Архив погоды в Боготоле

Метеограмма Боготол
Четверг, 21 Июня
Время местн. Темп Ветер Видим Явления Облачность нижн/средн/верх Атм. давл. Влжн Точка росы ВНГО R Сост. почвы Tg s
Напр Скр Прв ур.ст ур.м изм
07:00 +15.8° Ю 2 - 20 км - переменная облачность 730 755 0 94% +14.8° 2.5 км 0 Влажная (без луж) +13° -
04:00 +14.6° Ю 2 - 10 км дымка облачно с прояснениями 730 755 +0.3 99% +14.5° 2.5 км - - - -
01:00 +16° Ю,Ю-З 1 - 10 км дымка {ливневые осадки} облачно с прояснениями 729 755 -0.1 97% +15.5° 1 км - - - -
Среда, 20 Июня
Время местн. Темп Ветер Видим Явления Облачность нижн/средн/верх Атм. давл. Влжн Точка росы ВНГО R Сост. почвы Tg s
Напр Скр Прв ур.ст ур.м изм
22:00 +16° Ю,Ю-З 2 11 20 км - облачно с прояснениями 729 755 0 97% +15.5° 1 км - - - -
19:00 +20.8° З 3 - 20 км - облачно с прояснениями 729 754 +0.2 49% +9.7° 1 км 0 - - -
16:00 +23.7° Ю,Ю-З 3 - 20 км - переменная облачность 729 754 -0.8 41% +9.6° 1.5 км - - - -
13:00 +20.8° Ю-З 3 11 20 км - облачно с прояснениями 730 755 +0.5 50% +10.1° 1.5 км - - - -
10:00 +19° Ю,Ю-З 6 10 20 км - облачно с прояснениями 729 755 +1.1 70% +13.3° 1.5 км - - - -
07:00 +17.1° Ю-З 5 - 20 км небо без изменений {гроза, ливневые осадки} облачно с прояснениями 728 753 +2.1 99% +17° более 2.5 км 6 Сырая (есть малые или большие лужи) +14° -
04:00 +16.2° Ю,Ю-З 3 - 10 км дымка {гроза, ливневые осадки} переменная облачность 726 751 +1.7 94% +15.3° 2.5 км - - - -
01:00 +15.4° Ю,Ю-В 1 23 10 км дымка {гроза, ливневые осадки} переменная облачность 724 750 +0.3 98% +15.1° 1 км - - - -
Вторник, 19 Июня
Время местн. Темп Ветер Видим Явления Облачность нижн/средн/верх Атм. давл. Влжн Точка росы ВНГО R Сост. почвы Tg s
Напр Скр Прв ур.ст ур.м изм
22:00 +22.1° штиль 0 - 20 км - облачно с прояснениями 724 749 -0.2 77% +17.9° 2.5 км - - - -
19:00 +29.8° З 1 - 20 км - переменная облачность 724 748 -0.5 34% +12.4° 1.5 км 0 - - -
16:00 +30.2° З 1 - 20 км - переменная облачность 725 749 -0.2 35% +12.9° 1.5 км - - - -
13:00 +29.2° Ю-В 2 - 20 км - переменная облачность 725 749 0 35% +12.2° 1.5 км - - - -
10:00 +25.7° Ю-В 1 - 20 км - переменная облачность 725 749 +0.1 55% +16° 2.5 км - - - -
07:00 +19.5° Ю-В 1 - 10 км дымка переменная облачность 725 750 -0.7 80% +16° 2.5 км 0 Сухая (без трещин) +13° -
04:00 +13° С-В 1 - 10 км дымка облачно с прояснениями 726 751 -0.7 98% +12.7° 2.5 км - - - -
01:00 +17.6° В,С-В 2 - 20 км - переменная облачность 726 751 -1.1 62% +10.3° более 2.5 км - - - -
Понедельник, 18 Июня
Время местн. Темп Ветер Видим Явления Облачность нижн/средн/верх Атм. давл. Влжн Точка росы ВНГО R Сост. почвы Tg s
Напр Скр Прв ур.ст ур.м изм
22:00 +20.8° В 3 - 20 км - переменная облачность 727 752 -0.6 56% +11.7° более 2.5 км - - - -
19:00 +25.9° В 5 11 20 км - преимущественно облачно 728 753 -0.7 42% +12.1° 2.5 км 0 - - -
16:00 +27° В,С-В 6 10 20 км - преимущественно облачно 729 753 -1.2 44% +13.8° 2.5 км - - - -
13:00 +27.5° В,Ю-В 5 - 20 км - переменная облачность 730 754 -1.2 38% +12° более 2.5 км - - - -
10:00 +24.5° В 4 - 20 км - ясно 731 756 -0.5 59% +16° более 2.5 км - - - -
07:00 +18.6° В 2 - 10 км дымка ясно 732 757 -0.3 94% +17.6° более 2.5 км 0 Влажная (без луж) +11° -
04:00 +15.4° В 2 - 10 км дымка облачно с прояснениями 732 757 -0.3 99% +15.3° более 2.5 км - - - -